Time;durP1;ratioP1;P1;durP2;ratioP2;P2;SDS_P1;SDS_P2;PMS_P1;PMS_P2;Temp;Humidity;BMP_temperature;BMP_pressure;BME280_temperature;BME280_humidity;BME280_pressure;Samples;Min_cycle;Max_cycle;Signal;HPM_P1;HPM_P2
2022/09/07 00:00:06;;;;;;;5.53;2.50;;;;;;;18.11;77.28;98121.84;7384734;19;20015;-71
2022/09/07 00:02:33;;;;;;;8.02;2.97;;;;;;;18.13;76.65;98117.09;7385899;19;20019;-73
2022/09/07 00:05:00;;;;;;;3.50;2.25;;;;;;;18.20;76.40;98116.03;7387345;19;20022;-70
2022/09/07 00:07:26;;;;;;;5.60;2.55;;;;;;;18.27;75.97;98110.66;7385055;19;20018;-71
2022/09/07 00:09:53;;;;;;;5.25;2.22;;;;;;;18.34;75.87;98106.09;7382802;19;20026;-72
2022/09/07 00:12:20;;;;;;;5.50;1.77;;;;;;;18.38;75.65;98110.00;7382657;19;20023;-71
2022/09/07 00:14:46;;;;;;;5.28;2.42;;;;;;;18.44;75.49;98108.34;7384276;19;20019;-72
2022/09/07 00:17:13;;;;;;;2.90;2.35;;;;;;;18.50;74.67;98109.34;7382404;19;20502;-72
2022/09/07 00:19:40;;;;;;;6.03;2.35;;;;;;;18.50;75.11;98099.44;7382073;19;20018;-71
2022/09/07 00:22:06;;;;;;;4.18;2.30;;;;;;;18.51;75.07;98094.91;7381795;19;20015;-71
2022/09/07 00:24:33;;;;;;;4.85;2.30;;;;;;;18.58;75.43;98093.84;7380540;19;20023;-72
2022/09/07 00:27:00;;;;;;;4.65;2.40;;;;;;;18.65;74.74;98091.13;7378648;19;20510;-72
2022/09/07 00:29:26;;;;;;;3.22;1.98;;;;;;;18.62;74.90;98084.34;7381884;19;20021;-71
2022/09/07 00:31:53;;;;;;;5.82;2.25;;;;;;;18.58;75.03;98084.97;7379367;19;20474;-70
2022/09/07 00:34:20;;;;;;;3.97;2.45;;;;;;;18.52;74.88;98075.94;7383013;19;20505;-72
2022/09/07 00:36:47;;;;;;;4.18;2.55;;;;;;;18.49;75.16;98064.84;7378316;19;20014;-71
2022/09/07 00:39:13;;;;;;;6.15;2.50;;;;;;;18.42;74.49;98057.66;7382169;19;20034;-70
2022/09/07 00:41:40;;;;;;;4.60;2.28;;;;;;;18.40;74.92;98056.22;7376084;19;20721;-71
2022/09/07 00:44:55;;;;;;;6.93;2.58;;;;;;;18.42;74.51;98048.78;7382374;19;20015;-71
2022/09/07 00:47:47;;;;;;;6.53;2.05;;;;;;;18.51;74.24;98042.16;7379158;19;20011;-73
2022/09/07 00:50:19;;;;;;;5.18;1.58;;;;;;;18.62;73.92;98025.41;7383723;19;20042;-71
2022/09/07 00:52:50;;;;;;;10.52;2.30;;;;;;;18.67;73.87;98034.63;7389658;19;20018;-71
2022/09/07 00:55:17;;;;;;;5.35;2.00;;;;;;;18.69;73.85;98038.75;7387531;19;20021;-72
2022/09/07 00:57:48;;;;;;;6.38;2.92;;;;;;;18.64;73.59;98025.16;7384852;19;20509;-71
2022/09/07 01:00:15;;;;;;;4.53;1.73;;;;;;;18.57;73.51;98011.00;7386065;19;20034;-71
2022/09/07 01:02:41;;;;;;;4.10;1.90;;;;;;;18.51;73.58;98023.41;7391573;19;20489;-71
2022/09/07 01:05:25;;;;;;;5.15;2.15;;;;;;;18.38;73.89;98018.13;7386275;19;20015;-72
2022/09/07 01:07:55;;;;;;;1.85;1.70;;;;;;;18.27;74.17;98016.94;7386659;19;20018;-71
2022/09/07 01:10:26;;;;;;;6.45;2.03;;;;;;;18.11;74.88;98023.59;7389604;19;20016;-73
2022/09/07 01:12:53;;;;;;;4.47;1.77;;;;;;;18.07;75.06;98018.91;7389411;19;20010;-71
2022/09/07 01:15:20;;;;;;;4.35;2.22;;;;;;;18.07;74.86;98016.22;7386080;19;20039;-72
2022/09/07 01:18:07;;;;;;;5.18;2.22;;;;;;;18.03;74.95;98018.47;7386712;19;20580;-70
2022/09/07 01:20:49;;;;;;;3.45;2.03;;;;;;;17.99;75.91;98026.13;7387512;19;20410;-70
2022/09/07 01:23:28;;;;;;;4.78;2.10;;;;;;;18.04;75.31;98022.00;7385777;19;20069;-72
2022/09/07 01:26:29;;;;;;;3.70;2.35;;;;;;;18.13;74.85;98018.84;7387131;19;20028;-71
2022/09/07 01:29:16;;;;;;;4.30;2.15;;;;;;;18.10;74.96;98015.78;7388506;19;20631;-70
2022/09/07 01:32:10;;;;;;;3.20;2.00;;;;;;;18.06;75.24;98023.44;7384862;19;20568;-71
2022/09/07 01:34:38;;;;;;;7.53;2.22;;;;;;;18.10;75.30;98027.31;7390013;19;20037;-71
2022/09/07 01:37:10;;;;;;;4.55;2.17;;;;;;;18.07;75.58;98033.09;7384150;19;20469;-72
2022/09/07 01:39:59;;;;;;;4.82;2.60;;;;;;;18.17;75.20;98035.34;7388860;19;20023;-70
2022/09/07 01:42:31;;;;;;;4.07;2.60;;;;;;;18.25;75.09;98032.41;7387398;19;20018;-70
2022/09/07 01:45:03;;;;;;;5.18;3.00;;;;;;;18.34;75.11;98035.66;7386029;19;20097;-71
2022/09/07 01:47:33;;;;;;;4.45;2.78;;;;;;;18.43;74.58;98045.06;7387056;19;20077;-71
2022/09/07 01:50:06;;;;;;;6.43;2.75;;;;;;;18.43;75.31;98045.06;7387392;19;20021;-71
2022/09/07 01:52:55;;;;;;;6.55;3.55;;;;;;;18.49;75.15;98054.13;7389249;19;20021;-72
2022/09/07 01:55:38;;;;;;;5.35;2.60;;;;;;;18.55;74.93;98059.44;7385690;19;20338;-71
2022/09/07 01:58:07;;;;;;;3.67;2.83;;;;;;;18.60;74.96;98056.94;7384017;19;20014;-72
2022/09/07 02:00:37;;;;;;;5.00;3.03;;;;;;;18.61;75.15;98060.44;7386149;19;20493;-71
2022/09/07 02:03:16;;;;;;;5.65;2.80;;;;;;;18.67;75.28;98066.78;7385658;19;20018;-71
2022/09/07 02:05:50;;;;;;;6.43;3.20;;;;;;;18.65;75.11;98067.03;7386017;19;20033;-71
2022/09/07 02:08:24;;;;;;;5.78;3.50;;;;;;;18.68;74.98;98065.78;7383651;19;20029;-71
2022/09/07 02:10:54;;;;;;;6.05;3.70;;;;;;;18.71;74.70;98063.47;7383755;19;20018;-71
2022/09/07 02:13:34;;;;;;;4.57;3.33;;;;;;;18.74;74.84;98063.03;7382215;19;20026;-72
2022/09/07 02:16:08;;;;;;;9.77;3.90;;;;;;;18.73;75.29;98066.75;7383347;19;20801;-72
2022/09/07 02:18:43;;;;;;;7.28;3.72;;;;;;;18.71;75.69;98068.81;7384265;19;20018;-71
2022/09/07 02:21:11;;;;;;;7.43;3.60;;;;;;;18.74;75.49;98071.06;7383853;19;20022;-71
2022/09/07 02:24:06;;;;;;;8.77;4.28;;;;;;;18.73;75.26;98068.63;7382920;19;20596;-70
2022/09/07 02:26:36;;;;;;;9.30;3.65;;;;;;;18.72;75.36;98075.84;7382218;19;20014;-70
2022/09/07 02:29:03;;;;;;;5.75;3.80;;;;;;;18.72;75.77;98075.84;7382998;19;20024;-73
2022/09/07 02:31:30;;;;;;;4.25;3.45;;;;;;;18.73;75.78;98072.13;7383765;19;20034;-71
2022/09/07 02:33:57;;;;;;;8.88;3.50;;;;;;;18.73;75.90;98077.47;7386628;19;20014;-73
2022/09/07 02:36:25;;;;;;;5.38;2.85;;;;;;;18.73;75.77;98077.47;7382100;19;20011;-70
2022/09/07 02:38:52;;;;;;;6.55;3.33;;;;;;;18.70;75.54;98080.59;7383561;19;20022;-70
2022/09/07 02:41:40;;;;;;;7.03;3.88;;;;;;;18.65;75.53;98085.78;7384405;19;20022;-70
2022/09/07 02:44:13;;;;;;;8.25;3.60;;;;;;;18.68;75.42;98085.34;7385249;19;20032;-71
2022/09/07 02:46:58;;;;;;;4.05;3.10;;;;;;;18.59;76.20;98097.34;7384419;19;20010;-70
2022/09/07 02:49:43;;;;;;;5.95;3.22;;;;;;;18.51;76.19;98110.97;7386869;19;20458;-71
2022/09/07 02:52:26;;;;;;;4.80;3.03;;;;;;;18.42;76.92;98124.59;7383007;19;20010;-71
2022/09/07 02:55:18;;;;;;;7.53;3.80;;;;;;;18.49;76.46;98113.88;7385560;19;20077;-70
2022/09/07 02:57:59;;;;;;;9.25;3.17;;;;;;;18.46;76.42;98118.81;7381946;19;20500;-70
2022/09/07 03:00:30;;;;;;;6.83;3.37;;;;;;;18.39;76.70;98110.81;7385389;19;20022;-70
2022/09/07 03:03:02;;;;;;;4.68;3.42;;;;;;;18.29;77.40;98121.16;7385436;19;20011;-71
2022/09/07 03:06:00;;;;;;;7.47;3.35;;;;;;;18.31;77.12;98111.06;7386747;19;20019;-71
2022/09/07 03:08:34;;;;;;;5.85;3.58;;;;;;;18.19;77.66;98116.25;7383607;19;20054;-71
2022/09/07 03:11:03;;;;;;;5.70;3.42;;;;;;;18.22;77.11;98110.50;7383312;19;20033;-71
2022/09/07 03:13:31;;;;;;;6.07;3.33;;;;;;;18.11;77.98;98111.13;7382903;19;20026;-71
2022/09/07 03:15:58;;;;;;;3.65;3.25;;;;;;;18.12;77.60;98110.09;7383871;19;20015;-71
2022/09/07 03:18:26;;;;;;;4.35;3.15;;;;;;;18.04;78.19;98121.03;7381946;19;20015;-70
2022/09/07 03:20:54;;;;;;;5.32;2.78;;;;;;;17.97;78.13;98121.03;7381275;19;20489;-70
2022/09/07 03:23:21;;;;;;;4.20;3.08;;;;;;;17.99;77.93;98119.00;7385680;19;20014;-72
2022/09/07 03:25:48;;;;;;;7.05;3.53;;;;;;;18.05;77.59;98128.84;7386297;19;20034;-70
2022/09/07 03:28:15;;;;;;;3.88;3.03;;;;;;;18.04;77.59;98119.19;7379437;19;20046;-73
2022/09/07 03:30:43;;;;;;;6.13;2.80;;;;;;;18.08;77.46;98120.41;7383086;19;20025;-71
2022/09/07 03:33:10;;;;;;;6.05;3.30;;;;;;;17.96;77.50;98111.38;7384628;19;20101;-73
2022/09/07 03:35:36;;;;;;;7.13;3.58;;;;;;;17.91;77.58;98113.88;7382262;19;20021;-71
2022/09/07 03:38:03;;;;;;;9.30;3.90;;;;;;;17.82;77.74;98115.09;7379952;19;20011;-72
2022/09/07 03:40:30;;;;;;;6.15;3.50;;;;;;;17.75;78.13;98113.25;7384986;19;20018;-71
2022/09/07 03:42:56;;;;;;;6.38;3.40;;;;;;;17.63;78.39;98106.84;7385469;19;20015;-72
2022/09/07 03:45:23;;;;;;;7.75;3.70;;;;;;;17.56;78.66;98103.34;7382734;19;20043;-70
2022/09/07 03:47:50;;;;;;;6.90;3.38;;;;;;;17.43;79.41;98104.22;7381161;19;20036;-72
2022/09/07 03:50:17;;;;;;;5.70;3.80;;;;;;;17.44;nan;98105.84;7384055;19;20021;-71
2022/09/07 03:52:44;;;;;;;4.63;3.65;;;;;;;17.30;80.41;98106.91;7381979;19;20010;-71
2022/09/07 03:55:10;;;;;;;5.95;3.85;;;;;;;17.32;80.17;98103.00;7382137;19;20007;-71
2022/09/07 03:57:39;;;;;;;6.10;4.28;;;;;;;17.26;79.98;98109.13;7381776;19;20018;-70
2022/09/07 04:00:06;;;;;;;6.50;3.90;;;;;;;17.26;80.28;98109.13;7384906;19;20010;-71
2022/09/07 04:02:38;;;;;;;5.25;4.10;;;;;;;17.24;80.21;98113.03;7381702;19;20121;-71
2022/09/07 04:05:05;;;;;;;5.45;3.85;;;;;;;17.16;80.81;98111.38;7381763;19;20048;-71
2022/09/07 04:07:31;;;;;;;6.82;4.03;;;;;;;17.09;81.89;98116.75;7382543;19;21223;-72
2022/09/07 04:09:58;;;;;;;8.32;4.40;;;;;;;17.15;81.70;98130.31;7381415;19;20010;-71
2022/09/07 04:12:25;;;;;;;10.43;4.05;;;;;;;17.09;81.57;98124.75;7381795;19;20018;-71
2022/09/07 04:14:52;;;;;;;10.80;3.60;;;;;;;17.08;81.19;98120.41;7384639;19;20018;-72
2022/09/07 04:17:19;;;;;;;7.40;3.67;;;;;;;17.07;81.81;98126.81;7381127;19;20500;-71
2022/09/07 04:19:46;;;;;;;8.18;3.90;;;;;;;17.06;81.67;98132.34;7383431;19;20017;-70
2022/09/07 04:22:13;;;;;;;5.50;3.42;;;;;;;17.07;81.67;98134.81;7381001;19;20776;-70
2022/09/07 04:24:40;;;;;;;5.18;3.33;;;;;;;17.15;81.12;98128.47;7381461;19;20017;-71
2022/09/07 04:27:07;;;;;;;5.78;3.40;;;;;;;17.17;80.66;98129.09;7379203;19;20014;-71
2022/09/07 04:29:33;;;;;;;6.93;3.40;;;;;;;17.16;80.52;98124.75;7384452;19;20018;-71
2022/09/07 04:32:00;;;;;;;6.85;3.47;;;;;;;17.12;80.54;98128.88;7380757;19;20094;-71
2022/09/07 04:34:27;;;;;;;5.10;3.85;;;;;;;17.08;80.66;98135.63;7384630;19;20029;-71
2022/09/07 04:36:54;;;;;;;6.15;3.55;;;;;;;17.05;81.08;98141.41;7380455;19;20022;-70
2022/09/07 04:39:21;;;;;;;7.25;3.40;;;;;;;17.06;81.15;98140.34;7383292;19;20021;-71
2022/09/07 04:41:48;;;;;;;8.82;3.75;;;;;;;17.00;81.89;98144.66;7380231;19;20021;-71
2022/09/07 04:44:15;;;;;;;5.60;3.95;;;;;;;17.15;81.71;98149.03;7381393;19;20019;-72
2022/09/07 04:46:42;;;;;;;6.65;3.60;;;;;;;17.20;81.14;98139.38;7383043;19;20184;-71
2022/09/07 04:49:09;;;;;;;6.25;4.10;;;;;;;17.18;81.01;98140.59;7383459;19;20078;-71
2022/09/07 04:51:37;;;;;;;7.75;4.38;;;;;;;17.10;81.64;98139.75;7382811;19;20025;-70
2022/09/07 04:54:04;;;;;;;9.55;4.50;;;;;;;17.06;81.80;98130.50;7381310;19;20541;-70
2022/09/07 04:56:31;;;;;;;5.47;3.55;;;;;;;17.08;81.77;98128.44;7376256;19;20615;-73
2022/09/07 04:58:59;;;;;;;5.95;4.20;;;;;;;17.06;81.50;98125.16;7381484;19;20019;-72
2022/09/07 05:01:26;;;;;;;8.55;4.35;;;;;;;17.05;81.53;98123.50;7380238;19;20014;-71
2022/09/07 05:03:53;;;;;;;8.90;4.63;;;;;;;17.08;81.54;98115.06;7382204;19;20502;-71
2022/09/07 05:06:21;;;;;;;7.25;4.93;;;;;;;17.10;81.69;98114.88;7378970;19;20011;-71
2022/09/07 05:08:51;;;;;;;8.65;5.00;;;;;;;17.11;82.02;98121.88;7379630;19;20051;-72
2022/09/07 05:11:18;;;;;;;8.00;3.97;;;;;;;17.15;82.19;98124.97;7375673;19;20613;-72
2022/09/07 05:13:50;;;;;;;5.85;4.25;;;;;;;17.19;82.07;98124.34;7382902;19;20015;-72
2022/09/07 05:16:21;;;;;;;6.80;4.28;;;;;;;17.23;82.08;98124.78;7379323;19;20014;-70
2022/09/07 05:18:53;;;;;;;8.98;4.03;;;;;;;17.27;82.02;98131.34;7381942;19;20011;-70
2022/09/07 05:21:22;;;;;;;8.70;3.83;;;;;;;17.35;81.72;98131.13;7382570;19;20018;-70
2022/09/07 05:23:50;;;;;;;15.68;4.35;;;;;;;17.37;81.58;98131.75;7383437;19;20007;-70
2022/09/07 05:26:18;;;;;;;7.25;4.13;;;;;;;17.42;81.42;98133.81;7377429;19;20021;-72
2022/09/07 05:28:45;;;;;;;9.88;4.32;;;;;;;17.47;81.11;98131.34;7379455;19;20038;-71
2022/09/07 05:31:18;;;;;;;7.88;4.72;;;;;;;17.46;80.82;98130.53;7377778;19;20021;-73
2022/09/07 05:33:50;;;;;;;8.57;4.60;;;;;;;17.49;80.68;98130.13;7379693;19;20097;-70
2022/09/07 05:36:37;;;;;;;6.13;4.20;;;;;;;17.51;80.81;98124.59;7376517;19;20014;-71
2022/09/07 05:39:05;;;;;;;5.63;3.80;;;;;;;17.57;80.84;98125.59;7387163;19;20022;-70
2022/09/07 05:41:32;;;;;;;7.88;4.20;;;;;;;17.63;80.78;98125.59;7387280;19;20024;-71
2022/09/07 05:43:58;;;;;;;11.25;5.05;;;;;;;17.69;80.74;98139.97;7385816;19;20532;-72
2022/09/07 05:46:45;;;;;;;8.13;4.40;;;;;;;17.81;80.61;98138.38;7386335;19;20040;-71
2022/09/07 05:49:12;;;;;;;9.07;4.32;;;;;;;17.90;80.36;98147.81;7387299;19;20470;-71
2022/09/07 05:51:38;;;;;;;6.63;3.72;;;;;;;17.95;80.34;98149.88;7385758;19;20025;-70
2022/09/07 05:54:05;;;;;;;5.90;3.88;;;;;;;18.06;80.25;98157.28;7389391;19;20022;-71
2022/09/07 05:56:34;;;;;;;7.32;4.47;;;;;;;18.14;80.06;98153.53;7383579;19;20025;-71
2022/09/07 05:59:00;;;;;;;15.90;4.35;;;;;;;18.22;79.93;98156.00;7387258;19;20011;-71
2022/09/07 06:01:27;;;;;;;6.05;3.70;;;;;;;18.34;79.72;98154.31;7384787;19;20018;-72
2022/09/07 06:03:54;;;;;;;7.55;3.50;;;;;;;18.46;79.31;98156.31;7388685;19;20021;-71
2022/09/07 06:06:20;;;;;;;6.35;3.53;;;;;;;18.60;78.68;98152.56;7383298;19;20020;-71
2022/09/07 06:08:49;;;;;;;4.00;3.20;;;;;;;18.71;78.25;98151.09;7385817;19;20014;-71
2022/09/07 06:11:19;;;;;;;7.97;4.55;;;;;;;18.85;77.73;98150.84;7387788;19;20028;-71
2022/09/07 06:13:46;;;;;;;6.13;3.67;;;;;;;18.97;77.17;98147.47;7387861;19;20033;-70
2022/09/07 06:16:15;;;;;;;5.88;3.10;;;;;;;19.05;76.75;98156.06;7383742;19;20789;-70
2022/09/07 06:18:44;;;;;;;7.05;3.95;;;;;;;19.08;76.65;98161.00;7382982;19;20035;-71
2022/09/07 06:21:13;;;;;;;4.55;3.58;;;;;;;19.17;76.38;98164.28;7384682;19;20025;-71
2022/09/07 06:23:42;;;;;;;7.30;3.83;;;;;;;19.34;76.05;98167.25;7385893;19;20039;-71
2022/09/07 06:26:09;;;;;;;11.95;3.72;;;;;;;19.38;75.43;98163.09;7387610;19;20041;-71
2022/09/07 06:28:38;;;;;;;7.50;3.45;;;;;;;19.44;75.18;98159.53;7382118;19;20018;-71
2022/09/07 06:31:08;;;;;;;7.75;4.10;;;;;;;19.56;74.74;98156.94;7385834;19;20014;-71
2022/09/07 06:33:35;;;;;;;5.57;3.58;;;;;;;19.66;74.77;98157.31;7384211;19;20010;-71
2022/09/07 06:36:21;;;;;;;10.25;3.83;;;;;;;19.77;74.42;98153.09;7381385;19;20101;-73
2022/09/07 06:38:49;;;;;;;5.40;3.55;;;;;;;19.92;74.25;98150.06;7384297;19;20019;-72
2022/09/07 06:41:24;;;;;;;7.20;3.35;;;;;;;20.27;73.43;98144.13;7383810;19;20382;-71
2022/09/07 06:44:16;;;;;;;6.82;3.50;;;;;;;20.83;71.08;98140.41;7384558;19;20029;-72
2022/09/07 06:46:43;;;;;;;7.25;3.70;;;;;;;21.29;69.34;98146.16;7384592;19;20018;-71
2022/09/07 06:49:25;;;;;;;7.13;3.72;;;;;;;21.51;68.24;98146.44;7386287;19;20020;-70
2022/09/07 06:51:52;;;;;;;8.48;3.63;;;;;;;21.65;68.01;98153.28;7384319;19;20024;-70
2022/09/07 06:54:18;;;;;;;9.20;3.47;;;;;;;21.85;67.33;98144.84;7386834;19;20018;-71
2022/09/07 06:57:07;;;;;;;8.10;3.60;;;;;;;22.10;66.89;98141.91;7377650;19;20019;-71
2022/09/07 06:59:35;;;;;;;5.20;3.25;;;;;;;22.14;65.88;98132.28;7388082;19;20019;-70
2022/09/07 07:02:02;;;;;;;5.50;3.08;;;;;;;22.24;65.90;98137.94;7383934;19;20014;-73
2022/09/07 07:04:29;;;;;;;6.55;2.90;;;;;;;22.20;64.91;98134.09;7387965;19;20017;-73
2022/09/07 07:06:57;;;;;;;4.03;2.65;;;;;;;22.41;64.24;98142.59;7383513;19;20507;-71
2022/09/07 07:09:23;;;;;;;10.35;2.60;;;;;;;22.40;64.18;98138.25;7388186;19;20073;-70
2022/09/07 07:11:50;;;;;;;7.07;2.75;;;;;;;22.15;65.64;98142.03;7383170;19;20019;-71
2022/09/07 07:14:17;;;;;;;6.95;2.80;;;;;;;21.98;66.00;98155.38;7385048;19;20358;-73
2022/09/07 07:16:44;;;;;;;6.93;2.60;;;;;;;21.74;66.66;98153.75;7384221;19;20014;-71
2022/09/07 07:19:11;;;;;;;6.68;2.90;;;;;;;21.54;67.69;98137.91;7387759;19;20022;-71
2022/09/07 07:21:37;;;;;;;5.85;2.58;;;;;;;21.59;67.93;98143.41;7386025;19;20011;-71
2022/09/07 07:24:24;;;;;;;6.18;3.08;;;;;;;21.51;68.29;98141.06;7381459;19;20011;-71
2022/09/07 07:26:51;;;;;;;6.85;2.90;;;;;;;21.44;68.49;98141.19;7384015;19;20018;-74
2022/09/07 07:29:18;;;;;;;3.83;2.60;;;;;;;21.44;68.31;98142.00;7381226;19;20023;-71
2022/09/07 07:31:45;;;;;;;6.63;3.08;;;;;;;21.36;68.31;98152.25;7381417;19;20801;-71
2022/09/07 07:34:13;;;;;;;6.35;2.90;;;;;;;21.33;68.83;98155.38;7381095;19;20015;-71
2022/09/07 07:36:39;;;;;;;8.38;3.17;;;;;;;21.25;68.85;98151.19;7384804;19;20022;-71
2022/09/07 07:39:08;;;;;;;6.15;3.00;;;;;;;21.34;69.01;98163.25;7386706;19;20006;-72
2022/09/07 07:41:54;;;;;;;6.43;2.50;;;;;;;21.47;68.59;98170.34;7382147;19;20014;-72
2022/09/07 07:44:27;;;;;;;6.95;3.28;;;;;;;21.54;68.46;98172.91;7384726;19;20018;-71
2022/09/07 07:46:54;;;;;;;9.80;3.05;;;;;;;21.70;67.77;98170.38;7380358;19;20030;-71
2022/09/07 07:49:20;;;;;;;3.90;2.75;;;;;;;21.75;68.11;98179.59;7381926;19;20025;-71
2022/09/07 07:51:47;;;;;;;3.88;2.30;;;;;;;21.84;67.05;98184.44;7384701;19;20631;-70
2022/09/07 07:54:37;;;;;;;7.18;2.50;;;;;;;21.92;67.29;98183.25;7385489;19;20018;-70
2022/09/07 07:57:04;;;;;;;6.55;2.90;;;;;;;22.00;66.56;98177.53;7380809;19;20010;-73
2022/09/07 07:59:31;;;;;;;5.57;2.60;;;;;;;22.17;66.64;98191.13;7385423;19;20014;-73
2022/09/07 08:02:03;;;;;;;7.00;2.67;;;;;;;22.39;64.83;98190.56;7383938;19;20043;-71
2022/09/07 08:04:32;;;;;;;8.30;2.63;;;;;;;22.51;64.52;98188.63;7384349;19;20074;-70
2022/09/07 08:06:59;;;;;;;10.07;3.35;;;;;;;22.57;63.99;98193.09;7382520;19;20060;-72
2022/09/07 08:09:35;;;;;;;8.43;2.47;;;;;;;22.85;62.99;98189.59;7382608;19;20014;-71
2022/09/07 08:12:02;;;;;;;8.18;2.45;;;;;;;23.06;61.97;98195.44;7379287;19;20049;-71
2022/09/07 08:14:29;;;;;;;9.90;3.03;;;;;;;23.04;63.19;98193.00;7382586;19;20115;-70
2022/09/07 08:16:56;;;;;;;8.35;2.95;;;;;;;23.16;61.93;98199.13;7382954;19;20473;-71
2022/09/07 08:19:23;;;;;;;7.43;3.17;;;;;;;23.38;61.22;98193.03;7382166;19;20055;-71
2022/09/07 08:21:49;;;;;;;10.68;3.10;;;;;;;23.44;60.73;98195.59;7382604;19;20027;-71
2022/09/07 08:24:16;;;;;;;7.95;2.22;;;;;;;23.41;60.29;98195.28;7384384;19;20029;-71
2022/09/07 08:26:43;;;;;;;7.00;2.70;;;;;;;23.58;59.97;98195.28;7382042;19;20018;-70
2022/09/07 08:29:10;;;;;;;8.05;2.80;;;;;;;23.70;58.69;98201.44;7385975;19;20016;-71
2022/09/07 08:31:38;;;;;;;7.95;2.85;;;;;;;23.66;59.19;98203.00;7382911;19;20386;-71
2022/09/07 08:34:06;;;;;;;6.82;2.60;;;;;;;23.77;60.45;98201.31;7385164;19;20010;-71
2022/09/07 08:36:33;;;;;;;9.30;3.40;;;;;;;23.93;59.91;98195.06;7381074;19;20510;-72
2022/09/07 08:38:59;;;;;;;14.77;3.10;;;;;;;24.01;60.16;98189.28;7385265;19;20018;-71
2022/09/07 08:41:54;;;;;;;7.22;2.67;;;;;;;24.14;58.50;98193.50;7381263;19;20042;-72
2022/09/07 08:44:28;;;;;;;10.30;2.97;;;;;;;24.15;59.34;98197.84;7380396;19;20018;-71
2022/09/07 08:46:59;;;;;;;6.05;2.60;;;;;;;23.96;59.24;98210.81;7374164;19;20778;-71
2022/09/07 08:49:46;;;;;;;9.73;2.78;;;;;;;24.03;57.72;98208.75;7380363;19;20074;-73
2022/09/07 08:52:17;;;;;;;16.60;3.42;;;;;;;24.10;59.06;98203.19;7380736;19;20431;-71
2022/09/07 08:54:52;;;;;;;11.27;2.90;;;;;;;24.43;57.76;98198.78;7383370;19;20026;-72
2022/09/07 08:57:28;;;;;;;9.38;2.78;;;;;;;24.56;56.40;98190.31;7372438;19;20297;-72
2022/09/07 09:00:09;;;;;;;8.50;2.90;;;;;;;24.53;56.76;98188.13;7383749;19;20022;-71
2022/09/07 09:02:36;;;;;;;7.45;2.65;;;;;;;24.74;54.95;98189.22;7378935;19;20024;-71
2022/09/07 09:05:42;;;;;;;8.60;2.70;;;;;;;24.41;57.22;98190.09;7379968;19;20010;-73
2022/09/07 09:08:42;;;;;;;6.13;2.47;;;;;;;24.59;56.89;98186.31;7380914;19;20022;-72
2022/09/07 09:11:11;;;;;;;8.38;3.33;;;;;;;24.43;56.39;98190.66;7381096;19;20014;-72
2022/09/07 09:13:59;;;;;;;7.03;2.03;;;;;;;24.54;56.30;98195.19;7381122;19;20347;-73
2022/09/07 09:17:11;;;;;;;6.70;2.45;;;;;;;24.75;56.01;98190.84;7387218;19;20035;-72
2022/09/07 09:19:49;;;;;;;7.47;2.40;;;;;;;25.04;55.15;98190.63;7382755;19;20605;-73
2022/09/07 09:22:25;;;;;;;8.57;2.20;;;;;;;24.46;56.91;98182.91;7385927;19;20023;-74
2022/09/07 09:25:13;;;;;;;8.70;2.55;;;;;;;24.67;56.46;98183.16;7386833;19;20091;-74
2022/09/07 09:27:40;;;;;;;7.15;2.90;;;;;;;24.48;56.48;98175.34;7382598;19;20018;-72
2022/09/07 09:30:16;;;;;;;7.57;2.40;;;;;;;24.69;54.97;98165.59;7389334;19;20042;-72
2022/09/07 09:32:44;;;;;;;9.27;2.60;;;;;;;24.73;55.51;98169.47;7391462;19;20038;-72
2022/09/07 09:35:31;;;;;;;6.28;3.03;;;;;;;24.89;56.07;98169.63;7387459;19;20022;-72
2022/09/07 09:37:58;;;;;;;8.73;2.90;;;;;;;24.73;56.57;98166.75;7382308;19;20011;-72
2022/09/07 09:40:30;;;;;;;7.80;2.75;;;;;;;24.68;55.99;98163.16;7391304;19;20048;-72
2022/09/07 09:43:06;;;;;;;9.30;2.75;;;;;;;24.92;55.51;98158.31;7384968;19;20011;-72
2022/09/07 09:45:35;;;;;;;9.30;2.80;;;;;;;25.04;55.39;98153.56;7386632;19;20048;-72
2022/09/07 09:48:32;;;;;;;6.85;2.45;;;;;;;25.13;54.23;98156.63;7386241;19;20065;-73
2022/09/07 09:51:00;;;;;;;7.13;2.80;;;;;;;25.30;54.44;98154.66;7386322;19;20022;-75
2022/09/07 09:54:23;;;;;;;12.70;3.03;;;;;;;25.18;54.78;98164.84;7388796;19;20052;-75
2022/09/07 09:56:51;;;;;;;7.43;2.67;;;;;;;25.39;53.05;98166.66;7385228;19;20019;-72
2022/09/07 09:59:18;;;;;;;6.28;2.72;;;;;;;25.48;53.63;98166.19;7385495;19;20014;-72
2022/09/07 10:02:28;;;;;;;6.60;3.00;;;;;;;25.35;54.56;98151.16;7385705;19;20346;-72
2022/09/07 10:05:28;;;;;;;7.18;2.28;;;;;;;25.37;52.70;98152.56;7387358;19;20020;-72
2022/09/07 10:07:55;;;;;;;12.95;2.88;;;;;;;25.49;53.29;98151.56;7389961;19;20015;-71
2022/09/07 10:10:22;;;;;;;8.82;3.60;;;;;;;25.34;54.58;98144.94;7387421;19;20017;-72
2022/09/07 10:12:52;;;;;;;10.45;2.33;;;;;;;25.14;54.51;98133.88;7386325;19;20018;-72
2022/09/07 10:15:34;;;;;;;6.53;2.85;;;;;;;25.20;53.99;98130.22;7384045;19;20011;-72
2022/09/07 10:18:17;;;;;;;8.60;3.35;;;;;;;25.24;53.64;98134.03;7384950;19;20688;-71
2022/09/07 10:23:32;;;;;;;9.27;3.08;;;;;;;25.17;55.62;98128.81;7388695;19;20011;-72
2022/09/07 10:26:19;;;;;;;7.05;2.80;;;;;;;25.18;54.87;98124.22;7391664;19;20057;-72
2022/09/07 10:28:46;;;;;;;11.13;2.90;;;;;;;25.24;54.36;98125.09;7386979;19;20018;-71
2022/09/07 10:31:35;;;;;;;7.82;3.13;;;;;;;25.46;52.16;98119.59;7387911;19;20019;-72
2022/09/07 10:34:25;;;;;;;10.15;2.88;;;;;;;25.40;53.23;98118.72;7384302;19;20031;-74
2022/09/07 10:37:07;;;;;;;4.68;2.28;;;;;;;25.68;52.96;98111.38;7381553;19;20043;-72
2022/09/07 10:39:42;;;;;;;8.50;3.00;;;;;;;26.01;52.50;98115.66;7387432;19;20659;-72
2022/09/07 10:42:14;;;;;;;5.32;2.63;;;;;;;25.99;52.46;98112.41;7385550;19;20053;-73
2022/09/07 10:45:02;;;;;;;5.90;2.63;;;;;;;26.26;51.86;98107.66;7387517;19;20051;-72
2022/09/07 10:47:43;;;;;;;9.63;2.60;;;;;;;26.11;51.74;98098.66;7386490;19;20018;-72
2022/09/07 10:50:36;;;;;;;6.68;2.90;;;;;;;26.38;50.93;98107.44;7385542;19;20014;-72
2022/09/07 10:53:21;;;;;;;7.25;2.67;;;;;;;25.82;53.00;98110.63;7387177;19;20015;-73
2022/09/07 10:56:27;;;;;;;8.30;2.58;;;;;;;25.84;51.43;98094.97;7387797;19;20029;-75
2022/09/07 10:59:28;;;;;;;8.98;2.72;;;;;;;25.62;53.33;98086.13;7382132;19;20018;-73
2022/09/07 11:02:46;;;;;;;7.90;2.85;;;;;;;25.36;53.33;98088.66;7384569;19;20533;-73
2022/09/07 11:06:00;;;;;;;9.77;2.53;;;;;;;24.98;54.70;98098.53;7384829;19;20498;-72
2022/09/07 11:08:50;;;;;;;6.00;2.30;;;;;;;25.01;54.52;98091.81;7381735;19;20034;-72
2022/09/07 11:11:41;;;;;;;10.07;2.55;;;;;;;24.71;55.88;98095.03;7371812;19;20010;-71
2022/09/07 11:14:31;;;;;;;7.03;2.53;;;;;;;24.55;56.19;98098.66;7386162;19;20040;-72
2022/09/07 11:17:06;;;;;;;9.98;2.53;;;;;;;24.72;55.25;98091.25;7380122;19;20056;-72
2022/09/07 11:19:48;;;;;;;7.93;2.65;;;;;;;24.96;55.93;98081.78;7377702;19;20018;-72
2022/09/07 11:22:26;;;;;;;5.13;2.08;;;;;;;25.37;52.79;98076.72;7384298;19;20048;-72
2022/09/07 11:25:11;;;;;;;11.95;2.40;;;;;;;25.45;53.42;98063.78;7384394;19;20418;-72
2022/09/07 11:28:02;;;;;;;5.05;2.55;;;;;;;25.89;52.06;98064.38;7384388;19;20021;-73
2022/09/07 11:30:36;;;;;;;7.95;2.25;;;;;;;26.17;51.13;98067.75;7382992;19;20039;-73
2022/09/07 11:33:17;;;;;;;8.18;2.33;;;;;;;26.24;49.56;98065.63;7382262;19;20014;-74
2022/09/07 11:35:46;;;;;;;7.43;1.90;;;;;;;26.83;49.73;98059.88;7380676;19;20172;-72
2022/09/07 11:38:27;;;;;;;6.13;2.30;;;;;;;26.89;47.67;98058.78;7378370;19;20026;-72
2022/09/07 11:41:11;;;;;;;7.30;2.88;;;;;;;26.65;48.63;98057.66;7382951;19;20480;-73
2022/09/07 11:43:42;;;;;;;4.75;2.17;;;;;;;26.73;48.91;98059.84;7384818;19;20050;-72
2022/09/07 11:46:20;;;;;;;7.88;2.10;;;;;;;26.91;47.37;98047.69;7385125;19;20022;-72
2022/09/07 11:48:55;;;;;;;3.30;1.92;;;;;;;26.70;46.38;98047.63;7385547;19;20014;-73
2022/09/07 11:51:37;;;;;;;6.00;1.95;;;;;;;26.99;47.01;98054.44;7381483;19;20054;-72
2022/09/07 11:54:40;;;;;;;11.73;2.63;;;;;;;26.95;47.88;98053.38;7386958;19;20014;-73
2022/09/07 11:57:13;;;;;;;8.82;2.25;;;;;;;27.02;47.84;98049.31;7383207;19;20406;-72
2022/09/07 12:00:10;;;;;;;5.45;1.98;;;;;;;27.32;48.18;98058.56;7385485;19;20014;-72
2022/09/07 12:03:14;;;;;;;9.57;2.03;;;;;;;27.49;47.28;98042.81;7383958;19;20771;-72
2022/09/07 12:06:11;;;;;;;8.52;2.45;;;;;;;27.67;46.31;98046.03;7386785;19;20035;-73